首页
METAR-TAF:

METAR-TAF

机场 :

比萨-圣朱斯托机场

比萨, 意大利

纬度: 43-41N, 经度: 010-23E, 海拔: 2米

当前天气观测

该预报发布于33分钟前的04:15 UTC
风速4节,风向东转东南
温度 3°C
湿度 93%
气压 1023 hPa
能见度10公里或以上
少量云层高于4000英尺

METAR: LIRP 210415Z 12004KT 9999 FEW040 03/02 Q1023 NOSIG

时间: 05:48 (04:48 UTC)

预报

该预报发布于5小时和48分钟前的23:00 UTC
预报有效从21日的 00点(UTC)到 21日的 24点(UTC)
风速5节,风向东转东南
能见度10公里或以上
散云层高于2000英尺
几率 40% :
短暂存在
从 21日的 01点(UTC)到 21日的 07点(UTC)
能見度: 3000
多云层高于1000英尺
轻雾

TAF: LIRP 202300Z 2100/2124 11005KT 9999 SCT020 PROB40 TEMPO 2101/2107 3000 BR BKN010

超过4000个机场的气象观测和天气预报(METAR&TAF报告)。

可查询的气象台以黄色和红色小点在地图上表示。

将鼠标移到小点上方,可查看气象台名称。

然后点击查看天气观测和预报。

如需切换地图:点击带黑十字的绿色按钮放大地图;点击带横线的绿色按钮缩小地图;或者点击绿色箭头查看邻近地区的地图。


METAR-TAF: